NWS Home NWS Lubbock West Texas Mesonet South Sector Latest Conditions as of 0718 PM, Mon Oct 23, 2017

Latest   N   C   S   Daily Sum   3hrΔ   24hrΔ   Soil Data 
Site Map   24hr Precip   72hr Precip   Google Plot


Station Time of Last Temp Dew Pt. RH Wind Direction Wind Speed Wind Gust Max Wind Max Temp Min Temp Max RH Min RH Altimeter 1HR Rain Today's Rain Solar Rad Red Flag
Andrews 2E  07:10 PM 71 31 22% NE1319 29 mph 55° @ 0530 PM 86 46 64 12 30.20" 0 0.00 5  
Aspermont 3NE  07:10 PM 70 40 34% NE1014 27 mph 29° @ 0415 PM 82 43 75 19 30.18" 0 0.00 2  
Big Bend NP - Persimmon Gap  07:10 PM 88 23 10% W44 30 mph 238° @ 0324 PM 93 48 49 8 30.07" 0 0.00 7  
Big Lake 1WNW  07:10 PM 77 38 25% N23 24 mph 200° @ 1038 AM 85 47 65 14 30.13" 0 0.00 3  
Brownfield 2S  07:10 PM 69 35 28% NE1316 36 mph 46° @ 0255 PM 81 45 72 16 30.24" 0 0.00 1  
Clyde 2WNW  07:10 PM 68 49 50% N77 33 mph 214° @ 1040 AM 81 52 58 30 30.15" 0 0.00 1  
Colorado City 5NW  07:10 PM 72 37 28% NE1012 28 mph 23° @ 0503 PM 84 42 79 18 30.17" 0 0.00 2  
Coyanosa 2N  07:10 PM 80 42 26% S44 18 mph 320° @ 0354 PM 88 46 78 13 30.11" 0 0.00 6  
Dell City  07:10 PM 75 44 32% E34 12 mph 306° @ 0256 AM 83 40 69 16 30.18" 0 0.00 27  
Denver City 7WNW  07:10 PM 66 34 30% NE1014 32 mph 55° @ 0405 PM 81 45 76 15 30.24" 0 0.00 6  
Fluvanna 3WNW  07:10 PM 70 34 27% NE1621 31 mph 25° @ 0340 PM 79 47 58 20 30.20" 0 0.00 3  
Fort Chadbourne  07:10 PM 73 40 31% NE913 21 mph 43° @ 0553 PM 85 40 91 23 30.13" 0 0.00 2  
Fort Lancaster  07:10 PM 83 32 16% N68 14 mph 285° @ 0504 PM 92 42 85 12 30.08" 0 0.00 4  
Fort McKavett  07:10 PM 78 45 31% N45 22 mph 193° @ 1113 AM 86 39 87 24 30.10" 0 0.00 2  
Gail 2ESE  07:10 PM 71 36 28% NE1115 35 mph 28° @ 0355 PM 82 41 76 19 30.19" 0 0.00 3  
Graham 5SSW  07:10 PM 69 36 30% NE1924 36 mph 44° @ 0320 PM 78 47 67 22 30.21" 0 0.00 3  
Guadalupe Mtns Natl Park  07:10 PM 66 29 25% N67 32 mph 305° @ 0529 AM 78 55 25 12 30.31" 0 0.00 7 46
Haskell 1NW  07:10 PM 68 43 42% N1317 24 mph 215° @ 1025 AM 79 47 77 22 30.17" 0 0.00 1  
Hobbs NM 5NW  07:10 PM 70 31 24% E79 28 mph 41° @ 0359 PM 84 44 73 13 30.26" 0 0.00 6 1
Jayton 1SSE  07:10 PM 71 37 29% NE813 28 mph 42° @ 0245 PM 80 44 70 19 30.19" 0 0.00 2  
Junction 1SSW  07:10 PM 74 53 47% SW12 23 mph 210° @ 1126 AM 86 38 95 28 30.07" 0 0.00 1  
Lake Alan Henry 1NW  07:10 PM 70 36 28% NE1115 28 mph 33° @ 0249 PM 82 48 62 17 30.20" 0 0.00 2  
Lamesa 2SE  07:10 PM 69 36 29% NE1015 27 mph 53° @ 0450 PM 80 40 89 22 30.21" 0 0.00 3  
Lomax 1SSE  07:10 PM 74 38 28% NE1519 21 mph 31° @ 0706 PM 83 43 81 18 30.17" 0 0.00 3  
McCamey 1SSW  07:10 PM 80 40 24% N00 17 mph 316° @ 0415 PM 86 51 61 15 30.10" 0 0.00 5  
Menard 2NW   07:10 PM 77 46 34% N55 21 mph 231° @ 1112 AM 87 38 92 25 30.09" 0 0.00 1  
Mertzon 3NNE  07:10 PM 74 40 30% N810 29 mph 210° @ 1042 AM 89 37 89 16 30.11" 0 0.00 2  
New Home  07:10 PM 68 37 32% NE914 35 mph 48° @ 0209 PM 81 42 78 19 30.25" 0 0.00 3  
O'Donnell 1N  07:10 PM 68 35 30% NE1215 33 mph 49° @ 0310 PM 79 42 81 19 30.22" 0 0.00 3  
Plains 3N  07:10 PM 67 34 30% NE1014 34 mph 51° @ 0330 PM 81 41 86 17 30.25" 0 0.00 5  
Post 1NE  07:10 PM 69 35 29% NE1217 34 mph 34° @ 0225 PM 82 47 61 20 30.21" 0 0.00 0  
San Angelo 7NW  07:10 PM 77 38 25% NE46 23 mph 196° @ 1040 AM 88 41 71 14 30.09" 0 0.00 2  
Seagraves 1SW  07:10 PM 70 36 30% NE712 28 mph 47° @ 0350 PM 82 42 84 16 30.23" 0 0.00 5  
Seminole 2NNE  07:10 PM 70 33 25% E1115 33 mph 42° @ 0425 PM 83 45 67 14 30.22" 0 0.00 6 5
Sierra Blanca 1SSE  07:10 PM 78 26 15% W1113 22 mph 287° @ 1217 PM 81 51 38 13 30.24" 0 0.00 32  
Snyder 3E  07:10 PM 71 37 30% NE1015 26 mph 39° @ 0520 PM 82 46 71 19 30.17" 0 0.00 2  
Snyder 3SSW  07:10 PM 71 39 31% NE1011 29 mph 36° @ 0452 PM 82 46 70 20 30.18" 0 0.00 2  
St. Lawrence 5SW  07:10 PM 74 34 23% NE810 20 mph 191° @ 0950 AM 85 48 61 14 30.14" 0 0.00 4  
Stamford 5ESE  07:10 PM 70 46 41% NE1216 23 mph 225° @ 1043 AM 82 48 85 24 30.17" 0 0.00 1  
Sterling City 4WSW  07:10 PM 75 36 24% NE56 22 mph 192° @ 1020 AM 86 38 83 17 30.14" 0 0.00 2  
Sundown 8WSW  07:10 PM 65 35 33% NE911 32 mph 34° @ 0300 PM 81 42 84 17 30.26" 0 0.00 4  
Sweetwater 11SW   07:10 PM 69 39 33% NE1215 25 mph 28° @ 0531 PM 82 50 57 21 30.18" 0 0.00 2  
Tahoka 3NNE  07:10 PM 67 36 32% NE911 36 mph 49° @ 0232 PM 83 42 78 15 30.23" 0 0.00 0 4
Tarzan 2WNW  07:10 PM 72 37 28% NE1317 25 mph 45° @ 0612 PM 82 42 81 19 30.19" 0 0.00 4  
Tatum NM 2SW  07:10 PM 65 35 34% NE810 29 mph 53° @ 0405 PM 82 39 87 15 30.26" 0 0.00 9  
Throckmorton 1SW  07:10 PM 68 46 45% N711 26 mph 224° @ 1049 AM 79 49 73 30 30.17" 0 0.00 1  
Wall 2E  07:10 PM 73 45 37% NE78 23 mph 230° @ 1059 AM 87 40 85 21 30.10" 0 0.00 2  
Weinert 2NNE  07:10 PM 68 45 43% NE911 23 mph 246° @ 1102 AM 80 48 75 26 30.18" 0 0.00 1  
Welch  07:10 PM 70 37 30% E1012 31 mph 46° @ 0331 PM 82 40 89 18 30.24" 0 0.00 4  

West Texas Mesonet Home   Site Map/Menu  NWS Lubbock Soil Data  Daily Summary Page  24hr Precip  72hr Precip  Google Plot